createdAt,value
2023-03-11T00:00:34.803Z,0.90
2023-03-11T00:03:04.251Z,1.80
2023-03-11T00:05:34.854Z,1.10
2023-03-11T00:08:02.638Z,0.63
2023-03-11T00:10:32.527Z,1.30
2023-03-11T00:13:00.789Z,1.70
2023-03-11T00:15:29.355Z,1.23
2023-03-11T00:17:57.155Z,4.85
2023-03-11T00:20:34.313Z,1.70
2023-03-11T00:23:02.157Z,1.13
2023-03-11T00:25:31.359Z,0.73
2023-03-11T00:27:59.571Z,1.80
2023-03-11T00:30:28.115Z,2.72
2023-03-11T00:32:58.094Z,1.10
2023-03-11T00:35:28.427Z,1.80
2023-03-11T00:37:58.737Z,0.73
2023-03-11T00:40:28.773Z,2.97
2023-03-11T00:42:56.612Z,0.60
2023-03-11T00:45:23.897Z,1.38
2023-03-11T00:47:52.202Z,1.05
2023-03-11T00:50:22.256Z,1.95
2023-03-11T00:52:50.615Z,3.95
2023-03-11T00:55:25.192Z,1.75
2023-03-11T00:57:57.759Z,2.15
2023-03-11T01:00:26.536Z,0.93
2023-03-11T01:02:55.276Z,2.08
2023-03-11T01:05:25.996Z,2.50
2023-03-11T01:07:53.248Z,1.20
2023-03-11T01:10:20.873Z,0.63
2023-03-11T01:12:48.691Z,1.60
2023-03-11T01:15:23.124Z,1.83
2023-03-11T01:17:50.391Z,1.98
2023-03-11T01:20:17.980Z,3.05
2023-03-11T01:22:45.277Z,3.92
2023-03-11T01:25:14.841Z,1.38
2023-03-11T01:27:42.433Z,2.33
2023-03-11T01:30:14.474Z,1.80
2023-03-11T01:32:41.696Z,1.23
2023-03-11T01:35:12.844Z,0.22
2023-03-11T01:37:40.316Z,1.02
2023-03-11T01:40:14.659Z,0.60
2023-03-11T01:42:41.882Z,2.00
2023-03-11T01:45:50.267Z,2.50
2023-03-11T01:48:17.498Z,2.60
2023-03-11T01:50:50.008Z,0.95
2023-03-11T01:53:18.346Z,3.75
2023-03-11T01:55:46.185Z,2.13
2023-03-11T01:58:23.650Z,2.25
2023-03-11T02:00:51.050Z,2.80
2023-03-11T02:03:33.082Z,1.85
2023-03-11T02:06:07.059Z,1.42
2023-03-11T02:08:34.749Z,0.63
2023-03-11T02:11:04.844Z,2.10
2023-03-11T02:13:35.515Z,1.20
2023-03-11T02:16:04.488Z,0.77
2023-03-11T02:18:32.756Z,3.30
2023-03-11T02:21:26.946Z,3.60
2023-03-11T02:24:02.657Z,1.30
2023-03-11T02:27:03.452Z,2.40
2023-03-11T02:32:00.169Z,1.65
2023-03-11T02:34:30.293Z,3.80
2023-03-11T02:36:59.332Z,1.23
2023-03-11T02:39:40.274Z,3.17
2023-03-11T02:42:18.914Z,2.50
2023-03-11T02:44:50.082Z,1.80
2023-03-11T02:47:17.477Z,0.65
2023-03-11T02:49:44.906Z,1.35
2023-03-11T02:52:13.220Z,2.53
2023-03-11T02:54:40.347Z,1.30
2023-03-11T02:57:07.527Z,1.35
2023-03-11T02:59:35.054Z,1.35
2023-03-11T03:02:02.231Z,2.25
2023-03-11T03:04:29.453Z,2.78
2023-03-11T03:06:56.677Z,2.40
2023-03-11T03:09:23.812Z,2.15
2023-03-11T03:11:50.968Z,1.80
2023-03-11T03:14:18.210Z,1.27
2023-03-11T03:16:45.458Z,2.78
2023-03-11T03:19:12.636Z,1.85
2023-03-11T03:21:39.965Z,4.60
2023-03-11T03:24:07.447Z,2.45
2023-03-11T03:26:34.641Z,2.00
2023-03-11T03:29:01.926Z,1.77
2023-03-11T03:31:29.192Z,1.27
2023-03-11T03:33:56.403Z,1.13
2023-03-11T03:36:24.263Z,0.90
2023-03-11T03:38:58.261Z,1.63
2023-03-11T03:41:25.869Z,1.17
2023-03-11T03:43:53.814Z,1.95
2023-03-11T03:46:21.653Z,1.08
2023-03-11T03:48:48.951Z,1.73
2023-03-11T03:51:16.494Z,1.05
2023-03-11T03:53:44.002Z,0.90
2023-03-11T03:56:16.476Z,3.75
2023-03-11T03:58:43.763Z,0.55
2023-03-11T04:01:11.962Z,1.98
2023-03-11T04:03:39.772Z,2.42
2023-03-11T04:06:24.968Z,0.40
2023-03-11T04:08:53.376Z,0.82
2023-03-11T04:11:21.493Z,2.75
2023-03-11T04:13:49.003Z,0.68
2023-03-11T04:16:23.935Z,0.55
2023-03-11T04:18:51.169Z,1.92
2023-03-11T04:21:18.375Z,2.40
2023-03-11T04:23:45.542Z,1.90
2023-03-11T04:26:13.206Z,1.67
2023-03-11T04:28:40.450Z,3.83
2023-03-11T04:31:08.429Z,2.58
2023-03-11T04:33:36.006Z,1.23
2023-03-11T04:36:08.376Z,2.53
2023-03-11T04:38:36.027Z,1.42
2023-03-11T04:41:04.635Z,2.75
2023-03-11T04:43:32.896Z,1.42
2023-03-11T04:46:00.228Z,2.08
2023-03-11T04:48:27.820Z,2.58
2023-03-11T04:50:55.851Z,1.25
2023-03-11T04:53:24.446Z,1.35
2023-03-11T04:55:52.540Z,0.63
2023-03-11T04:58:20.093Z,1.02
2023-03-11T05:00:47.488Z,1.23
2023-03-11T05:03:14.760Z,1.52
2023-03-11T05:05:41.997Z,1.65
2023-03-11T05:08:09.149Z,1.25
2023-03-11T05:10:36.936Z,1.23
2023-03-11T05:13:04.282Z,1.65
2023-03-11T05:15:31.878Z,1.00
2023-03-11T05:17:59.162Z,1.80
2023-03-11T05:20:26.611Z,0.82
2023-03-11T05:22:53.817Z,1.48
2023-03-11T05:25:21.005Z,1.02
2023-03-11T05:27:48.207Z,3.13
2023-03-11T05:30:15.692Z,1.25
2023-03-11T05:32:43.049Z,1.73
2023-03-11T05:35:10.571Z,0.38
2023-03-11T05:37:39.576Z,2.25
2023-03-11T05:40:08.719Z,0.98
2023-03-11T05:42:36.056Z,1.83
2023-03-11T05:45:03.396Z,2.30
2023-03-11T05:47:30.680Z,2.80
2023-03-11T05:49:57.896Z,1.50
2023-03-11T05:52:25.200Z,1.42
2023-03-11T05:54:52.947Z,1.42
2023-03-11T05:57:20.169Z,1.45
2023-03-11T05:59:47.537Z,1.80
2023-03-11T06:02:14.874Z,1.02
2023-03-11T06:04:42.263Z,1.05
2023-03-11T06:07:09.793Z,3.08
2023-03-11T06:09:37.207Z,1.17
2023-03-11T06:12:05.568Z,3.28
2023-03-11T06:14:35.611Z,1.88
2023-03-11T06:17:04.201Z,3.15
2023-03-11T06:19:31.376Z,0.50
2023-03-11T06:21:58.616Z,0.93
2023-03-11T06:24:25.882Z,1.75
2023-03-11T06:26:53.453Z,1.88
2023-03-11T06:29:24.562Z,1.55
2023-03-11T06:31:51.858Z,1.48
2023-03-11T06:34:19.071Z,2.70
2023-03-11T06:36:46.343Z,0.88
2023-03-11T06:39:16.424Z,3.05
2023-03-11T06:41:43.879Z,3.38
2023-03-11T06:44:11.578Z,1.75
2023-03-11T06:46:38.906Z,1.85
2023-03-11T06:49:06.168Z,1.25
2023-03-11T06:51:33.710Z,1.33
2023-03-11T06:54:00.908Z,1.25
2023-03-11T06:56:28.210Z,0.65
2023-03-11T06:58:55.830Z,1.40
2023-03-11T07:01:25.503Z,2.13
2023-03-11T07:03:53.223Z,1.93
2023-03-11T07:06:24.196Z,1.75
2023-03-11T07:08:53.133Z,1.92
2023-03-11T07:11:23.380Z,1.50
2023-03-11T07:13:50.718Z,1.70
2023-03-11T07:16:23.866Z,1.23
2023-03-11T07:18:52.749Z,0.30
2023-03-11T07:21:22.563Z,1.00
2023-03-11T07:23:54.251Z,0.90
2023-03-11T07:26:22.449Z,1.30
2023-03-11T07:28:49.846Z,0.63
2023-03-11T07:31:20.690Z,2.15
2023-03-11T07:33:48.337Z,3.10
2023-03-11T07:36:21.939Z,2.15
2023-03-11T07:38:49.969Z,1.92
2023-03-11T07:41:17.081Z,1.65
2023-03-11T07:43:44.880Z,0.98
2023-03-11T07:46:18.626Z,4.70
2023-03-11T07:48:46.143Z,2.05
2023-03-11T07:51:16.467Z,3.08
2023-03-11T07:53:44.326Z,2.45
2023-03-11T07:56:12.994Z,3.30
2023-03-11T07:58:41.456Z,1.15
2023-03-11T08:01:17.269Z,1.73
2023-03-11T08:03:51.320Z,0.60
2023-03-11T08:06:22.360Z,0.57
2023-03-11T08:08:50.790Z,3.00
2023-03-11T08:11:19.379Z,2.22
2023-03-11T08:13:47.864Z,0.80
2023-03-11T08:16:18.562Z,3.40
2023-03-11T08:18:47.660Z,1.35
2023-03-11T08:21:17.892Z,0.68
2023-03-11T08:23:48.236Z,0.90
2023-03-11T08:26:18.011Z,1.63
2023-03-11T08:28:46.184Z,1.95
2023-03-11T08:31:15.607Z,1.23
2023-03-11T08:33:45.058Z,1.48
2023-03-11T08:36:12.933Z,1.00
2023-03-11T08:38:40.408Z,2.97
2023-03-11T08:41:08.161Z,0.93
2023-03-11T08:43:35.600Z,1.33
2023-03-11T08:46:04.516Z,1.02
2023-03-11T08:48:31.814Z,1.58
2023-03-11T08:50:59.390Z,0.90
2023-03-11T08:53:26.888Z,0.95
2023-03-11T08:55:54.122Z,1.15
2023-03-11T08:58:21.531Z,1.33
2023-03-11T09:00:48.730Z,0.95
2023-03-11T09:03:15.975Z,1.00
2023-03-11T09:05:43.258Z,2.33
2023-03-11T09:08:10.464Z,0.77
2023-03-11T09:10:37.648Z,1.75
2023-03-11T09:13:04.996Z,0.88
2023-03-11T09:15:32.380Z,1.17
2023-03-11T09:18:00.011Z,0.73
2023-03-11T09:20:27.279Z,1.15
2023-03-11T09:22:54.427Z,1.48
2023-03-11T09:25:21.667Z,0.60
2023-03-11T09:27:48.929Z,1.05
2023-03-11T09:30:16.337Z,1.15
2023-03-11T09:32:43.645Z,1.30
2023-03-11T09:35:11.122Z,2.30
2023-03-11T09:37:38.479Z,0.82
2023-03-11T09:40:06.274Z,1.05
2023-03-11T09:42:57.818Z,1.25
2023-03-11T09:45:28.690Z,1.13
2023-03-11T09:48:29.118Z,1.30
2023-03-11T09:51:08.567Z,2.28
2023-03-11T09:53:43.422Z,2.67
2023-03-11T09:56:17.101Z,1.20
2023-03-11T09:58:48.260Z,2.28
2023-03-11T10:01:35.238Z,2.30
2023-03-11T10:04:20.930Z,3.30
2023-03-11T10:06:48.669Z,1.73
2023-03-11T10:10:00.972Z,1.25
2023-03-11T10:13:04.059Z,0.60
2023-03-11T10:15:49.151Z,2.53
2023-03-11T10:18:24.850Z,3.20
2023-03-11T10:21:25.653Z,2.80
2023-03-11T10:24:13.316Z,1.10
2023-03-11T10:26:48.776Z,1.33
2023-03-11T10:29:41.410Z,1.52
2023-03-11T10:32:41.242Z,1.58
2023-03-11T10:35:29.441Z,2.43
2023-03-11T10:38:38.084Z,1.42
2023-03-11T10:41:12.963Z,2.17
2023-03-11T10:43:50.850Z,0.93
2023-03-11T10:46:26.668Z,2.00
2023-03-11T10:48:54.151Z,2.03
2023-03-11T10:51:34.484Z,2.10
2023-03-11T10:54:03.702Z,2.80
2023-03-11T10:56:33.099Z,2.58
2023-03-11T10:59:01.742Z,2.17
2023-03-11T11:01:29.871Z,1.45
2023-03-11T11:04:01.044Z,1.13
2023-03-11T11:06:34.298Z,1.73
2023-03-11T11:09:13.030Z,3.10
2023-03-11T11:11:40.271Z,2.90
2023-03-11T11:14:07.721Z,2.13
2023-03-11T11:16:35.719Z,1.75
2023-03-11T11:19:12.136Z,2.45
2023-03-11T11:21:45.941Z,2.35
2023-03-11T11:24:18.736Z,1.10
2023-03-11T11:27:18.457Z,3.42
2023-03-11T11:29:47.032Z,3.70
2023-03-11T11:32:36.465Z,2.60
2023-03-11T11:35:13.042Z,3.05
2023-03-11T11:37:49.639Z,2.28
2023-03-11T11:43:55.351Z,3.10
2023-03-11T11:46:31.549Z,2.85
2023-03-11T11:49:19.439Z,3.65
2023-03-11T11:52:19.074Z,2.40
2023-03-11T11:54:59.240Z,1.75
2023-03-11T11:57:26.543Z,2.45
2023-03-11T11:59:54.533Z,3.47
2023-03-11T12:02:43.726Z,3.03
2023-03-11T12:05:30.103Z,3.00
2023-03-11T12:08:03.345Z,3.40
2023-03-11T12:10:57.248Z,4.07
2023-03-11T12:13:27.183Z,2.53
2023-03-11T12:16:24.988Z,3.13
2023-03-11T12:19:12.932Z,3.08
2023-03-11T12:21:57.940Z,2.90
2023-03-11T12:25:01.700Z,3.08
2023-03-11T12:28:06.711Z,2.63
2023-03-11T12:30:39.425Z,2.70
2023-03-11T12:33:25.196Z,2.30
2023-03-11T12:35:58.303Z,3.03
2023-03-11T12:38:33.363Z,3.17
2023-03-11T12:41:03.346Z,3.58
2023-03-11T12:43:36.197Z,2.97
2023-03-11T12:46:05.653Z,3.30
2023-03-11T12:49:27.077Z,3.67
2023-03-11T12:52:09.265Z,2.58
2023-03-11T12:54:42.136Z,2.42
2023-03-11T12:57:21.247Z,2.38
2023-03-11T13:00:18.427Z,2.78
2023-03-11T13:03:10.225Z,3.42
2023-03-11T13:05:46.257Z,3.80
2023-03-11T13:08:23.012Z,2.08
2023-03-11T13:10:52.494Z,2.70
2023-03-11T13:13:25.724Z,3.25
2023-03-11T13:15:53.469Z,2.00
2023-03-11T13:18:25.100Z,3.58
2023-03-11T13:21:00.120Z,4.32
2023-03-11T13:23:31.161Z,2.67
2023-03-11T13:26:18.391Z,2.05
2023-03-11T13:29:00.482Z,3.22
2023-03-11T13:31:46.265Z,3.53
2023-03-11T13:34:44.285Z,3.50
2023-03-11T13:37:51.007Z,3.40
2023-03-11T13:40:40.133Z,3.88
2023-03-11T13:43:15.597Z,5.07
2023-03-11T13:45:55.133Z,4.70
2023-03-11T13:48:53.033Z,5.55
2023-03-11T13:51:25.812Z,3.75
2023-03-11T13:54:23.606Z,5.43
2023-03-11T13:57:03.078Z,6.63
2023-03-11T13:59:35.287Z,4.78
2023-03-11T14:02:02.497Z,3.55
2023-03-11T14:04:32.058Z,4.93
2023-03-11T14:07:00.417Z,4.63
2023-03-11T14:09:29.073Z,4.22
2023-03-11T14:12:05.215Z,4.40
2023-03-11T14:15:03.077Z,4.80
2023-03-11T14:17:30.362Z,4.95
2023-03-11T14:20:25.648Z,5.57
2023-03-11T14:22:55.369Z,4.10
2023-03-11T14:25:28.123Z,4.82
2023-03-11T14:28:01.605Z,4.38
2023-03-11T14:30:31.147Z,4.93
2023-03-11T14:33:33.663Z,4.65
2023-03-11T14:36:04.580Z,4.30
2023-03-11T14:38:32.911Z,4.15
2023-03-11T14:41:07.389Z,4.40
2023-03-11T14:43:39.899Z,4.43
2023-03-11T14:46:08.727Z,4.60
2023-03-11T14:48:39.798Z,3.92
2023-03-11T14:51:14.151Z,5.28
2023-03-11T14:53:44.577Z,3.85
2023-03-11T14:56:19.375Z,4.60
2023-03-11T14:59:14.000Z,4.75
2023-03-11T15:01:43.945Z,2.88
2023-03-11T15:04:44.460Z,4.05
2023-03-11T15:07:11.898Z,4.13
2023-03-11T15:09:42.451Z,4.05
2023-03-11T15:14:58.895Z,4.18
2023-03-11T15:17:37.399Z,2.72
2023-03-11T15:20:35.246Z,4.28
2023-03-11T15:23:07.834Z,2.97
2023-03-11T15:25:38.226Z,3.35
2023-03-11T15:28:34.252Z,3.60
2023-03-11T15:31:21.624Z,3.35
2023-03-11T15:33:49.477Z,3.50
2023-03-11T15:36:35.099Z,1.77
2023-03-11T15:39:22.620Z,2.45
2023-03-11T15:42:08.283Z,2.67
2023-03-11T15:44:37.481Z,3.08
2023-03-11T15:47:04.913Z,2.53
2023-03-11T15:49:32.265Z,3.08
2023-03-11T15:52:00.960Z,2.53
2023-03-11T15:54:28.600Z,1.40
2023-03-11T15:57:03.068Z,1.38
2023-03-11T15:59:30.713Z,1.33
2023-03-11T16:01:59.747Z,1.50
2023-03-11T16:04:27.496Z,1.85
2023-03-11T16:07:07.054Z,2.95
2023-03-11T16:12:09.127Z,1.48
2023-03-11T16:14:36.296Z,2.28
2023-03-11T16:17:03.711Z,2.42
2023-03-11T16:19:30.924Z,2.97
2023-03-11T16:21:58.047Z,2.30
2023-03-11T16:24:26.317Z,3.17
2023-03-11T16:26:54.166Z,1.77
2023-03-11T16:29:23.409Z,2.35
2023-03-11T16:31:50.687Z,2.67
2023-03-11T16:34:17.954Z,3.58
2023-03-11T16:36:45.163Z,2.80
2023-03-11T16:39:12.755Z,2.40
2023-03-11T16:41:44.795Z,3.03
2023-03-11T16:44:12.475Z,2.75
2023-03-11T16:46:39.885Z,4.68
2023-03-11T16:49:07.136Z,3.58
2023-03-11T16:51:34.654Z,3.88
2023-03-11T16:54:02.046Z,4.88
2023-03-11T16:56:29.353Z,3.92
2023-03-11T16:58:56.987Z,3.38
2023-03-11T17:01:24.374Z,4.20
2023-03-11T17:03:52.281Z,4.20
2023-03-11T17:06:21.348Z,3.72
2023-03-11T17:08:51.373Z,4.07
2023-03-11T17:11:21.159Z,3.95
2023-03-11T17:13:48.737Z,4.45
2023-03-11T17:16:16.035Z,5.30
2023-03-11T17:18:43.343Z,5.32
2023-03-11T17:21:13.740Z,5.43
2023-03-11T17:23:41.716Z,4.70
2023-03-11T17:26:12.558Z,4.93
2023-03-11T17:28:40.369Z,4.80
2023-03-11T17:31:12.711Z,4.93
2023-03-11T17:33:39.986Z,5.20
2023-03-11T17:36:09.915Z,4.85
2023-03-11T17:38:37.166Z,4.60
2023-03-11T17:41:11.439Z,5.43
2023-03-11T17:43:39.275Z,4.78
2023-03-11T17:46:12.608Z,5.82
2023-03-11T17:48:40.025Z,4.93
2023-03-11T17:51:13.622Z,5.45
2023-03-11T17:53:44.549Z,6.05
2023-03-11T17:56:14.731Z,5.45
2023-03-11T17:58:42.353Z,5.15
2023-03-11T18:01:18.843Z,4.18
2023-03-11T18:03:46.113Z,5.72
2023-03-11T18:06:13.881Z,4.72
2023-03-11T18:08:41.242Z,5.60
2023-03-11T18:11:14.164Z,4.70
2023-03-11T18:13:41.809Z,4.85
2023-03-11T18:16:12.914Z,5.20
2023-03-11T18:18:41.238Z,5.60
2023-03-11T18:21:12.480Z,5.47
2023-03-11T18:23:40.686Z,5.28
2023-03-11T18:26:10.026Z,4.90
2023-03-11T18:28:37.224Z,5.63
2023-03-11T18:31:11.427Z,4.47
2023-03-11T18:33:39.329Z,5.13
2023-03-11T18:36:12.879Z,3.78
2023-03-11T18:38:40.048Z,3.65
2023-03-11T18:41:07.302Z,4.60
2023-03-11T18:43:34.782Z,4.50
2023-03-11T18:46:02.573Z,3.95
2023-03-11T18:48:29.891Z,4.25
2023-03-11T18:50:57.168Z,4.10
2023-03-11T18:53:25.317Z,4.22
2023-03-11T18:55:58.270Z,4.30
2023-03-11T18:58:25.410Z,5.00
2023-03-11T19:00:52.607Z,4.82
2023-03-11T19:03:19.890Z,4.40
2023-03-11T19:05:50.616Z,4.72
2023-03-11T19:08:18.039Z,4.20
2023-03-11T19:10:45.354Z,4.68
2023-03-11T19:13:12.650Z,4.80
2023-03-11T19:15:41.936Z,5.90
2023-03-11T19:18:09.543Z,4.38
2023-03-11T19:20:36.899Z,5.10
2023-03-11T19:23:05.493Z,4.80
2023-03-11T19:25:36.317Z,5.50
2023-03-11T19:28:03.767Z,4.40
2023-03-11T19:30:30.971Z,4.82
2023-03-11T19:32:58.253Z,4.80
2023-03-11T19:35:25.549Z,4.15
2023-03-11T19:37:57.103Z,5.55
2023-03-11T19:40:25.165Z,6.13
2023-03-11T19:42:52.740Z,4.53
2023-03-11T19:45:19.871Z,5.20
2023-03-11T19:47:50.890Z,5.13
2023-03-11T19:50:19.425Z,6.28
2023-03-11T19:52:46.717Z,4.30
2023-03-11T19:55:14.213Z,6.00
2023-03-11T19:57:41.471Z,5.95
2023-03-11T20:00:09.728Z,6.47
2023-03-11T20:02:37.182Z,8.10
2023-03-11T20:05:04.743Z,6.03
2023-03-11T20:07:32.049Z,5.82
2023-03-11T20:09:59.274Z,6.38
2023-03-11T20:12:26.471Z,4.15
2023-03-11T20:14:53.740Z,4.97
2023-03-11T20:17:20.933Z,6.10
2023-03-11T20:19:48.152Z,5.05
2023-03-11T20:22:15.603Z,5.50
2023-03-11T20:24:42.801Z,5.25
2023-03-11T20:27:09.922Z,6.72
2023-03-11T20:29:37.224Z,4.78
2023-03-11T20:32:04.703Z,5.50
2023-03-11T20:34:31.994Z,6.63
2023-03-11T20:36:59.226Z,4.20
2023-03-11T20:39:26.459Z,5.50
2023-03-11T20:41:53.746Z,6.63
2023-03-11T20:44:20.923Z,6.47
2023-03-11T20:46:49.582Z,5.65
2023-03-11T20:49:16.764Z,6.10
2023-03-11T20:51:44.182Z,6.57
2023-03-11T20:54:12.327Z,5.60
2023-03-11T20:56:39.812Z,7.90
2023-03-11T20:59:07.652Z,4.30
2023-03-11T21:01:35.728Z,5.13
2023-03-11T21:04:03.810Z,4.38
2023-03-11T21:06:34.276Z,4.60
2023-03-11T21:09:05.296Z,5.00
2023-03-11T21:11:33.310Z,4.25
2023-03-11T21:14:00.529Z,3.42
2023-03-11T21:16:28.488Z,3.67
2023-03-11T21:18:56.249Z,4.82
2023-03-11T21:21:23.651Z,2.97
2023-03-11T21:23:51.308Z,3.58
2023-03-11T21:26:18.951Z,4.15
2023-03-11T21:28:46.760Z,3.40
2023-03-11T21:31:17.598Z,3.58
2023-03-11T21:36:14.116Z,3.65
2023-03-11T21:38:41.555Z,3.42
2023-03-11T21:41:17.544Z,3.33
2023-03-11T21:43:45.708Z,4.43
2023-03-11T21:46:19.711Z,2.65
2023-03-11T21:48:48.022Z,3.08
2023-03-11T21:51:16.227Z,3.30
2023-03-11T21:53:43.813Z,3.90
2023-03-11T21:56:11.211Z,3.22
2023-03-11T21:58:38.636Z,3.00
2023-03-11T22:01:07.259Z,3.65
2023-03-11T22:03:36.033Z,2.10
2023-03-11T22:06:11.847Z,3.30
2023-03-11T22:08:39.268Z,2.42
2023-03-11T22:11:14.160Z,4.15
2023-03-11T22:13:41.581Z,3.55
2023-03-11T22:16:09.259Z,3.58
2023-03-11T22:18:36.773Z,3.13
2023-03-11T22:21:04.487Z,3.88
2023-03-11T22:23:32.220Z,3.60
2023-03-11T22:25:59.450Z,1.95
2023-03-11T22:28:26.791Z,2.15
2023-03-11T22:30:53.967Z,3.13
2023-03-11T22:33:21.156Z,2.50
2023-03-11T22:35:56.388Z,3.30
2023-03-11T22:38:24.119Z,2.95
2023-03-11T22:40:51.771Z,3.22
2023-03-11T22:43:19.044Z,3.13
2023-03-11T22:45:46.977Z,4.10
2023-03-11T22:48:14.233Z,3.17
2023-03-11T22:50:42.571Z,2.40
2023-03-11T22:53:09.851Z,3.42
2023-03-11T22:55:41.865Z,3.90
2023-03-11T22:58:09.435Z,3.28
2023-03-11T23:00:37.006Z,4.00
2023-03-11T23:03:04.544Z,3.08
2023-03-11T23:05:32.024Z,4.03
2023-03-11T23:07:59.177Z,2.90
2023-03-11T23:10:26.332Z,3.30
2023-03-11T23:12:53.511Z,2.25
2023-03-11T23:15:20.758Z,3.92
2023-03-11T23:17:47.951Z,2.97
2023-03-11T23:20:16.211Z,3.58
2023-03-11T23:22:43.882Z,3.13
2023-03-11T23:25:15.161Z,4.38
2023-03-11T23:27:43.956Z,2.95
2023-03-11T23:30:14.993Z,3.10
2023-03-11T23:32:42.444Z,2.45
2023-03-11T23:35:10.083Z,2.78
2023-03-11T23:37:37.268Z,2.97
2023-03-11T23:40:05.569Z,2.60
2023-03-11T23:42:34.972Z,2.83
2023-03-11T23:45:02.627Z,1.95
2023-03-11T23:47:29.752Z,2.00
2023-03-11T23:49:57.011Z,2.08
2023-03-11T23:52:24.292Z,3.28
2023-03-11T23:54:51.515Z,1.77
2023-03-11T23:57:19.525Z,1.98
2023-03-11T23:59:46.733Z,2.80
